Flight Track Log - Related Links

Times and Time Zones

All times are in EST time to prevent confusion due to time zone crossing. See the CAL261 flight status page for this flight to view local times or setup timezone preferences in your user account.

Time Position Orientation Groundspeed Altitude Reporting Facility
EST Latitude Longitude Course Direction KTS MPH feet Rate Location/Type
Thu 12:08:00 AM 37.1945 126.6141 201° Southwest  Level Estimated
Thu 12:09:00 AM 37.1035 126.5702 201° Southwest  Level Estimated
Thu 12:10:00 AM 37.0125 126.5265 201° Southwest  Level Estimated
Thu 12:11:00 AM 36.9214 126.4828 201° Southwest  Level Estimated
Thu 12:12:00 AM 36.8304 126.4393 201° Southwest  Level Estimated
Thu 12:13:00 AM 36.7393 126.3958 201° Southwest  Level Estimated
Thu 12:14:00 AM 36.6482 126.3525 201° Southwest  Level Estimated
Thu 12:15:00 AM 36.5572 126.3092 201° Southwest  Level Estimated
Thu 12:16:00 AM 36.4660 126.2661 201° Southwest  Level Estimated
Thu 12:17:00 AM 36.3749 126.2231 201° Southwest  Level Estimated
Thu 12:18:00 AM 36.2838 126.1802 201° Southwest  Level Estimated
Thu 12:19:00 AM 36.1926 126.1373 201° Southwest  Level Estimated
Thu 12:20:00 AM 36.1014 126.0946 201° Southwest  Level Estimated
Thu 12:21:00 AM 36.0103 126.0520 201° Southwest  Level Estimated
Thu 12:22:00 AM 35.9190 126.0094 201° Southwest  Level Estimated
Thu 12:23:00 AM 35.8278 125.9670 201° Southwest  Level Estimated
Thu 12:24:00 AM 35.7366 125.9247 201° Southwest  Level Estimated
Thu 12:25:00 AM 35.6454 125.8824 201° Southwest  Level Estimated
Thu 12:26:00 AM 35.5541 125.8403 201° Southwest  Level Estimated
Thu 12:27:00 AM 35.4628 125.7982 201° Southwest  Level Estimated
Thu 12:28:00 AM 35.3715 125.7562 201° Southwest  Level Estimated
Thu 12:29:00 AM 35.2802 125.7144 201° Southwest  Level Estimated
Thu 12:30:00 AM 35.1889 125.6726 200° South  Level Estimated
Thu 12:31:00 AM 35.0976 125.6310 200° South  Level Estimated
Thu 12:32:00 AM 35.0062 125.5894 200° South  Level Estimated
Thu 12:33:00 AM 34.9149 125.5479 200° South  Level Estimated
Thu 12:34:00 AM 34.8235 125.5065 200° South  Level Estimated
Thu 12:35:00 AM 34.7321 125.4652 200° South  Level Estimated
Thu 12:36:00 AM 34.6407 125.4240 200° South  Level Estimated
Thu 12:37:00 AM 34.5493 125.3829 200° South  Level Estimated
Thu 12:38:00 AM 34.4578 125.3418 200° South  Level Estimated
Thu 12:39:00 AM 34.3664 125.3009 200° South  Level Estimated
Thu 12:40:00 AM 34.2749 125.2600 200° South  Level Estimated
Thu 12:41:00 AM 34.1835 125.2193 200° South  Level Estimated
Thu 12:42:00 AM 34.0920 125.1786 200° South  Level Estimated
Thu 12:43:00 AM 34.0005 125.1380 200° South  Level Estimated
Thu 12:44:00 AM 33.9090 125.0975 200° South  Level Estimated
Thu 12:45:00 AM 33.8174 125.0571 200° South  Level Estimated
Thu 12:46:00 AM 33.7259 125.0168 200° South  Level Estimated
Thu 12:47:00 AM 33.6343 124.9765 200° South  Level Estimated
Thu 12:48:00 AM 33.5428 124.9364 200° South  Level Estimated
Thu 12:49:00 AM 33.4512 124.8963 200° South  Level Estimated
Thu 12:50:00 AM 33.3596 124.8563 200° South  Level Estimated
Thu 12:51:00 AM 33.2680 124.8164 200° South  Level Estimated
Thu 12:52:00 AM 33.1764 124.7766 200° South  Level Estimated
Thu 12:53:00 AM 33.0848 124.7369 200° South  Level Estimated
Thu 12:54:00 AM 32.9931 124.6972 200° South  Level Estimated
Thu 12:55:00 AM 32.9015 124.6577 200° South  Level Estimated
Thu 12:56:00 AM 32.8098 124.6182 200° South  Level Estimated
Thu 12:57:00 AM 32.7181 124.5788 200° South  Level Estimated
Thu 12:58:00 AM 32.6264 124.5394 200° South  Level Estimated
Thu 12:59:00 AM 32.5347 124.5002 200° South  Level Estimated
Thu 01:00:00 AM 32.4430 124.4610 200° South  Level Estimated
Thu 01:01:00 AM 32.3513 124.4220 200° South  Level Estimated
Thu 01:02:00 AM 32.2596 124.3829 200° South  Level Estimated
Thu 01:03:00 AM 32.1678 124.3440 200° South  Level Estimated
Thu 01:04:00 AM 32.0760 124.3052 200° South  Level Estimated
Thu 01:05:00 AM 31.9843 124.2664 200° South  Level Estimated
Thu 01:06:00 AM 31.8925 124.2277 200° South  Level Estimated
Thu 01:07:00 AM 31.8007 124.1891 200° South  Level Estimated
Thu 01:08:00 AM 31.7089 124.1505 200° South  Level Estimated
Thu 01:09:00 AM 31.6171 124.1121 200° South  Level Estimated
Thu 01:10:00 AM 31.5252 124.0737 200° South  Level Estimated
Thu 01:11:00 AM 31.4334 124.0354 200° South  Level Estimated
Thu 01:12:00 AM 31.3415 123.9971 200° South  Level Estimated
Thu 01:13:00 AM 31.2497 123.9590 200° South  Level Estimated
Thu 01:14:00 AM 31.1578 123.9209 200° South  Level Estimated
Thu 01:15:00 AM 31.0659 123.8829 200° South  Level Estimated
Thu 01:16:00 AM 30.9740 123.8449 199° South  Level Estimated
Thu 01:17:00 AM 30.8821 123.8071 199° South  Level Estimated
Thu 01:18:00 AM 30.7902 123.7693 199° South  Level Estimated
Thu 01:19:00 AM 30.6982 123.7316 199° South  Level Estimated
Thu 01:20:00 AM 30.6063 123.6939 199° South  Level Estimated
Thu 01:21:00 AM 30.5143 123.6563 199° South  Level Estimated
Thu 01:22:00 AM 30.4224 123.6188 199° South  Level Estimated
Thu 01:23:00 AM 30.3304 123.5814 199° South  Level Estimated
Thu 01:24:00 AM 30.2384 123.5440 199° South  Level Estimated
Thu 01:25:00 AM 30.1464 123.5067 199° South  Level Estimated
Thu 01:26:00 AM 30.0544 123.4695 199° South  Level Estimated
Thu 01:27:00 AM 29.9624 123.4323 199° South  Level Estimated
Thu 01:28:00 AM 29.8703 123.3952 199° South  Level Estimated
Thu 01:29:00 AM 29.7783 123.3582 199° South  Level Estimated
Thu 01:30:00 AM 29.6862 123.3213 199° South  Level Estimated
Thu 01:31:00 AM 29.5942 123.2844 199° South  Level Estimated
Thu 01:32:00 AM 29.5021 123.2475 199° South  Level Estimated
Thu 01:33:00 AM 29.4100 123.2108 199° South  Level Estimated
Thu 01:34:00 AM 29.3179 123.1741 199° South  Level Estimated
Thu 01:35:00 AM 29.2258 123.1375 199° South  Level Estimated
Thu 01:36:00 AM 29.1337 123.1009 199° South  Level Estimated
Thu 01:37:00 AM 29.0416 123.0644 199° South  Level Estimated
Thu 01:38:00 AM 28.9495 123.0280 199° South  Level Estimated
Thu 01:39:00 AM 28.8573 122.9917 199° South  Level Estimated
Thu 01:40:00 AM 28.7652 122.9554 199° South  Level Estimated
Thu 01:41:00 AM 28.6730 122.9191 199° South  Level Estimated
Thu 01:42:00 AM 28.5809 122.8830 199° South  Level Estimated
Thu 01:43:00 AM 28.4887 122.8469 199° South  Level Estimated
Thu 01:44:00 AM 28.3965 122.8108 199° South  Level Estimated
Thu 01:45:00 AM 28.3043 122.7748 199° South  Level Estimated
Thu 01:46:00 AM 28.2121 122.7389 199° South  Level Estimated
Thu 01:47:00 AM 28.1199 122.7031 199° South  Level Estimated
Thu 01:48:00 AM 28.0276 122.6673 199° South  Level Estimated
Thu 01:49:00 AM 27.9354 122.6316 199° South  Level Estimated
Thu 01:50:00 AM 27.8432 122.5959 199° South  Level Estimated
Thu 01:51:00 AM 27.7509 122.5603 199° South  Level Estimated
Thu 01:52:00 AM 27.6586 122.5247 199° South  Level Estimated
Thu 01:53:00 AM 27.5664 122.4892 199° South  Level Estimated
Thu 01:54:00 AM 27.4741 122.4538 199° South  Level Estimated
Thu 01:55:00 AM 27.3818 122.4184 199° South  Level Estimated
Thu 01:56:00 AM 27.2895 122.3831 199° South  Level Estimated
Thu 01:57:00 AM 27.1972 122.3479 199° South  Level Estimated
Thu 01:58:00 AM 27.1049 122.3127 199° South  Level Estimated
Thu 01:59:00 AM 27.0126 122.2775 199° South  Level Estimated
Thu 02:00:00 AM 26.9202 122.2425 199° South  Level Estimated
Thu 02:01:00 AM 26.8279 122.2075 199° South  Level Estimated
Thu 02:02:00 AM 26.7355 122.1725 199° South  Level Estimated
Thu 02:03:00 AM 26.6432 122.1376 199° South  Level Estimated
Thu 02:04:00 AM 26.5508 122.1027 199° South  Level Estimated
Thu 02:05:00 AM 26.4584 122.0679 199° South  Level Estimated
Thu 02:06:00 AM 26.3661 122.0332 199° South  Level Estimated
Thu 02:07:00 AM 26.2737 121.9985 199° South  Level Estimated
Thu 02:08:00 AM 26.1813 121.9639 199° South  Level Estimated
Thu 02:09:00 AM 26.0889 121.9293 199° South  Level Estimated
Thu 02:10:00 AM 25.9964 121.8948 199° South  Level Estimated
Thu 02:11:00 AM 25.9040 121.8603 199° South  Level Estimated
Thu 02:12:00 AM 25.8116 121.8259 199° South  Level Estimated
Thu 02:13:00 AM 25.7191 121.7916 199° South  Level Estimated
Thu 02:14:00 AM 25.6267 121.7573 198° South  Level Estimated
Thu 02:15:00 AM 25.5342 121.7230 198° South  Level Estimated
Thu 02:16:00 AM 25.4417 121.6888 198° South  Level Estimated

Login

Don't have an account? Register now (free) for customized features, flight alerts, and more!